sensor_id;sensor_type;location;lat;lon;timestamp;temperature;humidity
41220;DHT22;26951;47.338;9.196;2023-04-06T00:02:38;-0.50;43.80
41220;DHT22;26951;47.338;9.196;2023-04-06T00:05:22;-0.60;43.70
41220;DHT22;26951;47.338;9.196;2023-04-06T00:08:07;-0.60;43.40
41220;DHT22;26951;47.338;9.196;2023-04-06T00:10:51;-0.70;43.10
41220;DHT22;26951;47.338;9.196;2023-04-06T00:13:35;-0.80;43.20
41220;DHT22;26951;47.338;9.196;2023-04-06T00:16:20;-0.90;43.70
41220;DHT22;26951;47.338;9.196;2023-04-06T00:19:04;-0.90;44.40
41220;DHT22;26951;47.338;9.196;2023-04-06T00:21:48;-0.90;44.60
41220;DHT22;26951;47.338;9.196;2023-04-06T00:24:32;-0.90;44.10
41220;DHT22;26951;47.338;9.196;2023-04-06T00:27:16;-1.00;43.80
41220;DHT22;26951;47.338;9.196;2023-04-06T00:30:01;-0.90;43.70
41220;DHT22;26951;47.338;9.196;2023-04-06T00:32:45;-1.00;44.10
41220;DHT22;26951;47.338;9.196;2023-04-06T00:35:29;-1.00;44.00
41220;DHT22;26951;47.338;9.196;2023-04-06T00:38:14;-1.00;44.20
41220;DHT22;26951;47.338;9.196;2023-04-06T00:40:59;-1.00;44.60
41220;DHT22;26951;47.338;9.196;2023-04-06T00:43:43;-1.00;44.50
41220;DHT22;26951;47.338;9.196;2023-04-06T00:46:28;-1.00;44.90
41220;DHT22;26951;47.338;9.196;2023-04-06T00:49:12;-1.00;44.30
41220;DHT22;26951;47.338;9.196;2023-04-06T00:51:56;-1.00;44.20
41220;DHT22;26951;47.338;9.196;2023-04-06T00:54:40;-1.00;43.90
41220;DHT22;26951;47.338;9.196;2023-04-06T00:57:24;-1.00;44.00
41220;DHT22;26951;47.338;9.196;2023-04-06T01:00:09;-1.00;44.00
41220;DHT22;26951;47.338;9.196;2023-04-06T01:02:55;-1.00;43.80
41220;DHT22;26951;47.338;9.196;2023-04-06T01:05:39;-1.00;44.00
41220;DHT22;26951;47.338;9.196;2023-04-06T01:08:24;-1.00;44.10
41220;DHT22;26951;47.338;9.196;2023-04-06T01:11:09;-1.00;44.40
41220;DHT22;26951;47.338;9.196;2023-04-06T01:13:53;-1.00;44.20
41220;DHT22;26951;47.338;9.196;2023-04-06T01:16:38;-1.10;44.30
41220;DHT22;26951;47.338;9.196;2023-04-06T01:19:22;-1.10;43.90
41220;DHT22;26951;47.338;9.196;2023-04-06T01:22:08;-1.10;44.40
41220;DHT22;26951;47.338;9.196;2023-04-06T01:24:52;-1.10;44.50
41220;DHT22;26951;47.338;9.196;2023-04-06T01:27:36;-1.10;45.20
41220;DHT22;26951;47.338;9.196;2023-04-06T01:30:20;-1.10;45.00
41220;DHT22;26951;47.338;9.196;2023-04-06T01:33:04;-1.10;44.60
41220;DHT22;26951;47.338;9.196;2023-04-06T01:35:49;-1.10;44.10
41220;DHT22;26951;47.338;9.196;2023-04-06T01:38:33;-1.20;44.00
41220;DHT22;26951;47.338;9.196;2023-04-06T01:41:17;-1.20;44.10
41220;DHT22;26951;47.338;9.196;2023-04-06T01:44:02;-1.20;44.40
41220;DHT22;26951;47.338;9.196;2023-04-06T01:46:46;-1.30;45.30
41220;DHT22;26951;47.338;9.196;2023-04-06T01:49:30;-1.30;45.40
41220;DHT22;26951;47.338;9.196;2023-04-06T01:52:14;-1.20;44.80
41220;DHT22;26951;47.338;9.196;2023-04-06T01:54:59;-1.30;45.80
41220;DHT22;26951;47.338;9.196;2023-04-06T01:57:43;-1.40;46.10
41220;DHT22;26951;47.338;9.196;2023-04-06T02:00:28;-1.30;45.00
41220;DHT22;26951;47.338;9.196;2023-04-06T02:03:12;-1.30;45.60
41220;DHT22;26951;47.338;9.196;2023-04-06T02:05:58;-1.40;46.00
41220;DHT22;26951;47.338;9.196;2023-04-06T02:08:42;-1.30;45.80
41220;DHT22;26951;47.338;9.196;2023-04-06T02:11:27;-1.30;45.10
41220;DHT22;26951;47.338;9.196;2023-04-06T02:14:11;-1.30;45.60
41220;DHT22;26951;47.338;9.196;2023-04-06T02:16:55;-1.30;45.70
41220;DHT22;26951;47.338;9.196;2023-04-06T02:19:39;-1.30;45.00
41220;DHT22;26951;47.338;9.196;2023-04-06T02:22:23;-1.30;44.40
41220;DHT22;26951;47.338;9.196;2023-04-06T02:25:09;-1.30;45.20
41220;DHT22;26951;47.338;9.196;2023-04-06T02:27:54;-1.30;44.80
41220;DHT22;26951;47.338;9.196;2023-04-06T02:30:38;-1.30;44.60
41220;DHT22;26951;47.338;9.196;2023-04-06T02:33:22;-1.30;45.10
41220;DHT22;26951;47.338;9.196;2023-04-06T02:36:07;-1.30;45.00
41220;DHT22;26951;47.338;9.196;2023-04-06T02:38:51;-1.30;45.00
41220;DHT22;26951;47.338;9.196;2023-04-06T02:41:35;-1.30;44.60
41220;DHT22;26951;47.338;9.196;2023-04-06T02:44:19;-1.30;44.80
41220;DHT22;26951;47.338;9.196;2023-04-06T02:47:03;-1.30;45.50
41220;DHT22;26951;47.338;9.196;2023-04-06T02:49:47;-1.30;44.50
41220;DHT22;26951;47.338;9.196;2023-04-06T02:52:32;-1.30;44.50
41220;DHT22;26951;47.338;9.196;2023-04-06T02:55:16;-1.20;43.60
41220;DHT22;26951;47.338;9.196;2023-04-06T02:58:00;-1.30;44.40
41220;DHT22;26951;47.338;9.196;2023-04-06T03:00:45;-1.40;44.70
41220;DHT22;26951;47.338;9.196;2023-04-06T03:03:29;-1.50;45.00
41220;DHT22;26951;47.338;9.196;2023-04-06T03:06:13;-1.40;45.00
41220;DHT22;26951;47.338;9.196;2023-04-06T03:08:58;-1.50;44.80
41220;DHT22;26951;47.338;9.196;2023-04-06T03:11:42;-1.50;45.50
41220;DHT22;26951;47.338;9.196;2023-04-06T03:14:28;-1.40;44.60
41220;DHT22;26951;47.338;9.196;2023-04-06T03:17:12;-1.40;44.60
41220;DHT22;26951;47.338;9.196;2023-04-06T03:19:56;-1.40;44.60
41220;DHT22;26951;47.338;9.196;2023-04-06T03:22:40;-1.40;44.70
41220;DHT22;26951;47.338;9.196;2023-04-06T03:25:25;-1.50;44.70
41220;DHT22;26951;47.338;9.196;2023-04-06T03:28:09;-1.50;44.90
41220;DHT22;26951;47.338;9.196;2023-04-06T03:30:53;-1.40;43.90
41220;DHT22;26951;47.338;9.196;2023-04-06T03:33:38;-1.40;44.30
41220;DHT22;26951;47.338;9.196;2023-04-06T03:36:22;-1.40;44.30
41220;DHT22;26951;47.338;9.196;2023-04-06T03:39:06;-1.40;43.90
41220;DHT22;26951;47.338;9.196;2023-04-06T03:41:50;-1.40;43.80
41220;DHT22;26951;47.338;9.196;2023-04-06T03:44:34;-1.40;44.50
41220;DHT22;26951;47.338;9.196;2023-04-06T03:47:18;-1.30;43.10
41220;DHT22;26951;47.338;9.196;2023-04-06T03:50:02;-1.30;42.70
41220;DHT22;26951;47.338;9.196;2023-04-06T03:52:46;-1.30;42.60
41220;DHT22;26951;47.338;9.196;2023-04-06T03:55:31;-1.40;43.80
41220;DHT22;26951;47.338;9.196;2023-04-06T03:58:15;-1.40;43.60
41220;DHT22;26951;47.338;9.196;2023-04-06T04:00:59;-1.40;43.30
41220;DHT22;26951;47.338;9.196;2023-04-06T04:03:43;-1.40;42.80
41220;DHT22;26951;47.338;9.196;2023-04-06T04:06:28;-1.40;43.30
41220;DHT22;26951;47.338;9.196;2023-04-06T04:09:12;-1.50;43.80
41220;DHT22;26951;47.338;9.196;2023-04-06T04:11:56;-1.40;43.20
41220;DHT22;26951;47.338;9.196;2023-04-06T04:14:40;-1.50;43.10
41220;DHT22;26951;47.338;9.196;2023-04-06T04:17:24;-1.50;43.00
41220;DHT22;26951;47.338;9.196;2023-04-06T04:20:09;-1.50;43.00
41220;DHT22;26951;47.338;9.196;2023-04-06T04:22:53;-1.40;43.10
41220;DHT22;26951;47.338;9.196;2023-04-06T04:25:37;-1.50;42.80
41220;DHT22;26951;47.338;9.196;2023-04-06T04:28:21;-1.50;42.60
41220;DHT22;26951;47.338;9.196;2023-04-06T04:31:05;-1.50;42.70
41220;DHT22;26951;47.338;9.196;2023-04-06T04:33:49;-1.50;43.00
41220;DHT22;26951;47.338;9.196;2023-04-06T04:36:33;-1.50;43.00
41220;DHT22;26951;47.338;9.196;2023-04-06T04:39:18;-1.50;42.70
41220;DHT22;26951;47.338;9.196;2023-04-06T04:42:02;-1.50;43.10
41220;DHT22;26951;47.338;9.196;2023-04-06T04:44:46;-1.50;43.00
41220;DHT22;26951;47.338;9.196;2023-04-06T04:47:30;-1.50;43.00
41220;DHT22;26951;47.338;9.196;2023-04-06T04:50:14;-1.50;43.00
41220;DHT22;26951;47.338;9.196;2023-04-06T04:52:58;-1.50;43.00
41220;DHT22;26951;47.338;9.196;2023-04-06T04:55:42;-1.50;43.00
41220;DHT22;26951;47.338;9.196;2023-04-06T04:58:26;-1.50;42.80
41220;DHT22;26951;47.338;9.196;2023-04-06T05:01:10;-1.60;43.40
41220;DHT22;26951;47.338;9.196;2023-04-06T05:03:54;-1.60;43.30
41220;DHT22;26951;47.338;9.196;2023-04-06T05:06:39;-1.60;43.00
41220;DHT22;26951;47.338;9.196;2023-04-06T05:09:23;-1.50;43.00
41220;DHT22;26951;47.338;9.196;2023-04-06T05:12:08;-1.60;43.60
41220;DHT22;26951;47.338;9.196;2023-04-06T05:14:53;-1.60;44.10
41220;DHT22;26951;47.338;9.196;2023-04-06T05:17:38;-1.60;43.70
41220;DHT22;26951;47.338;9.196;2023-04-06T05:20:22;-1.60;43.90
41220;DHT22;26951;47.338;9.196;2023-04-06T05:23:07;-1.60;44.00
41220;DHT22;26951;47.338;9.196;2023-04-06T05:25:51;-1.50;43.90
41220;DHT22;26951;47.338;9.196;2023-04-06T05:28:35;-1.40;43.80
41220;DHT22;26951;47.338;9.196;2023-04-06T05:31:20;-1.30;43.60
41220;DHT22;26951;47.338;9.196;2023-04-06T05:34:04;-1.30;43.60
41220;DHT22;26951;47.338;9.196;2023-04-06T05:36:48;-1.30;43.20
41220;DHT22;26951;47.338;9.196;2023-04-06T05:39:32;-1.30;43.40
41220;DHT22;26951;47.338;9.196;2023-04-06T05:42:16;-1.30;43.80
41220;DHT22;26951;47.338;9.196;2023-04-06T05:45:00;-1.20;44.00
41220;DHT22;26951;47.338;9.196;2023-04-06T05:47:45;-1.20;44.20
41220;DHT22;26951;47.338;9.196;2023-04-06T05:50:29;-1.10;44.70
41220;DHT22;26951;47.338;9.196;2023-04-06T05:53:13;-1.00;46.20
41220;DHT22;26951;47.338;9.196;2023-04-06T05:56:01;-0.80;48.00
41220;DHT22;26951;47.338;9.196;2023-04-06T05:58:45;-0.60;50.40
41220;DHT22;26951;47.338;9.196;2023-04-06T06:01:29;-0.40;52.30
41220;DHT22;26951;47.338;9.196;2023-04-06T06:04:14;-0.10;53.00
41220;DHT22;26951;47.338;9.196;2023-04-06T06:06:58;0.20;52.90
41220;DHT22;26951;47.338;9.196;2023-04-06T06:09:42;0.60;52.00
41220;DHT22;26951;47.338;9.196;2023-04-06T06:12:26;0.90;52.90
41220;DHT22;26951;47.338;9.196;2023-04-06T06:15:11;1.30;52.20
41220;DHT22;26951;47.338;9.196;2023-04-06T06:17:55;1.70;52.20
41220;DHT22;26951;47.338;9.196;2023-04-06T06:20:39;2.10;51.30
41220;DHT22;26951;47.338;9.196;2023-04-06T06:23:23;2.50;49.70
41220;DHT22;26951;47.338;9.196;2023-04-06T06:26:07;3.00;49.20
41220;DHT22;26951;47.338;9.196;2023-04-06T06:28:51;3.40;47.90
41220;DHT22;26951;47.338;9.196;2023-04-06T06:31:36;3.80;47.50
41220;DHT22;26951;47.338;9.196;2023-04-06T06:34:20;4.20;46.80
41220;DHT22;26951;47.338;9.196;2023-04-06T06:37:05;4.60;46.10
41220;DHT22;26951;47.338;9.196;2023-04-06T06:39:49;5.00;44.90
41220;DHT22;26951;47.338;9.196;2023-04-06T06:42:34;5.40;44.70
41220;DHT22;26951;47.338;9.196;2023-04-06T06:45:18;5.80;43.80
41220;DHT22;26951;47.338;9.196;2023-04-06T06:48:04;6.10;43.20
41220;DHT22;26951;47.338;9.196;2023-04-06T06:50:48;6.50;41.90
41220;DHT22;26951;47.338;9.196;2023-04-06T06:53:33;6.80;40.40
41220;DHT22;26951;47.338;9.196;2023-04-06T06:56:17;7.20;40.30
41220;DHT22;26951;47.338;9.196;2023-04-06T06:59:01;7.50;39.80
41220;DHT22;26951;47.338;9.196;2023-04-06T07:01:45;7.80;39.10
41220;DHT22;26951;47.338;9.196;2023-04-06T07:04:29;8.20;38.70
41220;DHT22;26951;47.338;9.196;2023-04-06T07:07:13;8.50;37.00
41220;DHT22;26951;47.338;9.196;2023-04-06T07:09:57;8.80;36.60
41220;DHT22;26951;47.338;9.196;2023-04-06T07:12:42;9.10;36.90
41220;DHT22;26951;47.338;9.196;2023-04-06T07:15:26;9.40;36.50
41220;DHT22;26951;47.338;9.196;2023-04-06T07:18:10;9.80;35.80
41220;DHT22;26951;47.338;9.196;2023-04-06T07:20:54;10.10;32.20
41220;DHT22;26951;47.338;9.196;2023-04-06T07:23:39;10.40;31.90
41220;DHT22;26951;47.338;9.196;2023-04-06T07:26:23;10.70;30.90
41220;DHT22;26951;47.338;9.196;2023-04-06T07:29:07;11.00;29.80
41220;DHT22;26951;47.338;9.196;2023-04-06T07:31:51;11.20;26.20
41220;DHT22;26951;47.338;9.196;2023-04-06T07:34:35;11.40;24.80
41220;DHT22;26951;47.338;9.196;2023-04-06T07:37:20;11.60;24.50
41220;DHT22;26951;47.338;9.196;2023-04-06T07:40:04;11.70;25.50
41220;DHT22;26951;47.338;9.196;2023-04-06T07:42:49;12.00;23.70
41220;DHT22;26951;47.338;9.196;2023-04-06T07:45:34;12.20;22.40
41220;DHT22;26951;47.338;9.196;2023-04-06T07:48:18;12.30;21.90
41220;DHT22;26951;47.338;9.196;2023-04-06T07:51:06;12.50;22.00
41220;DHT22;26951;47.338;9.196;2023-04-06T07:53:50;12.60;22.50
41220;DHT22;26951;47.338;9.196;2023-04-06T07:56:35;12.80;23.30
41220;DHT22;26951;47.338;9.196;2023-04-06T07:59:19;12.90;21.50
41220;DHT22;26951;47.338;9.196;2023-04-06T08:02:04;13.10;22.80
41220;DHT22;26951;47.338;9.196;2023-04-06T08:04:49;13.30;22.40
41220;DHT22;26951;47.338;9.196;2023-04-06T08:07:33;13.40;20.30
41220;DHT22;26951;47.338;9.196;2023-04-06T08:10:18;13.60;23.90
41220;DHT22;26951;47.338;9.196;2023-04-06T08:13:02;13.80;21.40
41220;DHT22;26951;47.338;9.196;2023-04-06T08:15:46;13.90;19.70
41220;DHT22;26951;47.338;9.196;2023-04-06T08:18:31;14.00;19.40
41220;DHT22;26951;47.338;9.196;2023-04-06T08:21:15;14.20;18.10
41220;DHT22;26951;47.338;9.196;2023-04-06T08:24:00;14.10;16.80
41220;DHT22;26951;47.338;9.196;2023-04-06T08:26:44;14.10;20.30
41220;DHT22;26951;47.338;9.196;2023-04-06T08:29:29;14.30;20.80
41220;DHT22;26951;47.338;9.196;2023-04-06T08:32:13;14.40;19.80
41220;DHT22;26951;47.338;9.196;2023-04-06T08:34:57;14.30;20.50
41220;DHT22;26951;47.338;9.196;2023-04-06T08:37:41;14.30;17.90
41220;DHT22;26951;47.338;9.196;2023-04-06T08:40:27;14.20;17.10
41220;DHT22;26951;47.338;9.196;2023-04-06T08:43:14;14.20;19.80
41220;DHT22;26951;47.338;9.196;2023-04-06T08:45:58;14.20;18.00
41220;DHT22;26951;47.338;9.196;2023-04-06T08:48:43;14.10;15.20
41220;DHT22;26951;47.338;9.196;2023-04-06T08:51:28;14.00;19.00
41220;DHT22;26951;47.338;9.196;2023-04-06T08:54:12;13.90;15.50
41220;DHT22;26951;47.338;9.196;2023-04-06T08:56:57;13.90;17.90
41220;DHT22;26951;47.338;9.196;2023-04-06T08:59:42;13.90;21.40
41220;DHT22;26951;47.338;9.196;2023-04-06T09:02:27;14.10;23.00
41220;DHT22;26951;47.338;9.196;2023-04-06T09:05:11;14.50;21.90
41220;DHT22;26951;47.338;9.196;2023-04-06T09:07:56;14.40;17.00
41220;DHT22;26951;47.338;9.196;2023-04-06T09:10:41;14.50;19.90
41220;DHT22;26951;47.338;9.196;2023-04-06T09:13:25;14.60;18.20
41220;DHT22;26951;47.338;9.196;2023-04-06T09:16:09;14.80;21.30
41220;DHT22;26951;47.338;9.196;2023-04-06T09:18:54;15.00;20.00
41220;DHT22;26951;47.338;9.196;2023-04-06T09:21:39;15.00;16.10
41220;DHT22;26951;47.338;9.196;2023-04-06T09:24:24;15.00;18.60
41220;DHT22;26951;47.338;9.196;2023-04-06T09:27:10;15.00;18.40
41220;DHT22;26951;47.338;9.196;2023-04-06T09:30:03;15.20;20.60
41220;DHT22;26951;47.338;9.196;2023-04-06T09:32:50;15.00;15.60
41220;DHT22;26951;47.338;9.196;2023-04-06T09:35:34;14.80;16.30
41220;DHT22;26951;47.338;9.196;2023-04-06T09:38:18;14.50;16.00
41220;DHT22;26951;47.338;9.196;2023-04-06T09:41:03;14.50;17.20
41220;DHT22;26951;47.338;9.196;2023-04-06T09:43:47;14.50;17.10
41220;DHT22;26951;47.338;9.196;2023-04-06T09:46:33;14.40;18.20
41220;DHT22;26951;47.338;9.196;2023-04-06T09:49:18;14.10;15.80
41220;DHT22;26951;47.338;9.196;2023-04-06T09:52:04;14.00;16.70
41220;DHT22;26951;47.338;9.196;2023-04-06T09:54:50;13.90;17.00
41220;DHT22;26951;47.338;9.196;2023-04-06T09:57:43;13.90;19.00
41220;DHT22;26951;47.338;9.196;2023-04-06T10:00:32;13.80;20.30
41220;DHT22;26951;47.338;9.196;2023-04-06T10:06:15;13.60;16.90
41220;DHT22;26951;47.338;9.196;2023-04-06T10:09:04;13.40;17.00
41220;DHT22;26951;47.338;9.196;2023-04-06T10:11:49;13.50;18.30
41220;DHT22;26951;47.338;9.196;2023-04-06T10:14:34;13.50;17.60
41220;DHT22;26951;47.338;9.196;2023-04-06T10:17:21;13.50;14.40
41220;DHT22;26951;47.338;9.196;2023-04-06T10:20:09;13.50;15.40
41220;DHT22;26951;47.338;9.196;2023-04-06T10:23:16;13.60;18.20
41220;DHT22;26951;47.338;9.196;2023-04-06T10:26:03;13.70;18.30
41220;DHT22;26951;47.338;9.196;2023-04-06T10:28:50;13.90;19.40
41220;DHT22;26951;47.338;9.196;2023-04-06T10:31:40;14.00;15.80
41220;DHT22;26951;47.338;9.196;2023-04-06T10:34:34;14.00;17.20
41220;DHT22;26951;47.338;9.196;2023-04-06T10:37:19;14.00;14.90
41220;DHT22;26951;47.338;9.196;2023-04-06T10:40:05;13.90;18.60
41220;DHT22;26951;47.338;9.196;2023-04-06T10:42:49;13.90;15.20
41220;DHT22;26951;47.338;9.196;2023-04-06T10:45:34;13.80;18.70
41220;DHT22;26951;47.338;9.196;2023-04-06T10:48:19;13.70;16.80
41220;DHT22;26951;47.338;9.196;2023-04-06T10:51:08;13.70;16.20
41220;DHT22;26951;47.338;9.196;2023-04-06T10:53:53;13.80;17.30
41220;DHT22;26951;47.338;9.196;2023-04-06T10:56:37;13.80;17.10
41220;DHT22;26951;47.338;9.196;2023-04-06T10:59:22;13.80;16.30
41220;DHT22;26951;47.338;9.196;2023-04-06T11:02:08;13.70;16.30
41220;DHT22;26951;47.338;9.196;2023-04-06T11:04:59;13.70;18.30
41220;DHT22;26951;47.338;9.196;2023-04-06T11:07:44;13.80;19.90
41220;DHT22;26951;47.338;9.196;2023-04-06T11:10:28;13.90;17.10
41220;DHT22;26951;47.338;9.196;2023-04-06T11:13:13;13.90;16.50
41220;DHT22;26951;47.338;9.196;2023-04-06T11:15:58;13.90;14.70
41220;DHT22;26951;47.338;9.196;2023-04-06T11:18:56;13.90;14.40
41220;DHT22;26951;47.338;9.196;2023-04-06T11:21:48;13.70;15.50
41220;DHT22;26951;47.338;9.196;2023-04-06T11:24:32;13.70;12.30
41220;DHT22;26951;47.338;9.196;2023-04-06T11:27:17;13.70;13.60
41220;DHT22;26951;47.338;9.196;2023-04-06T11:30:04;13.70;18.40
41220;DHT22;26951;47.338;9.196;2023-04-06T11:32:49;13.90;18.60
41220;DHT22;26951;47.338;9.196;2023-04-06T11:35:33;14.10;15.80
41220;DHT22;26951;47.338;9.196;2023-04-06T11:38:19;14.00;15.00
41220;DHT22;26951;47.338;9.196;2023-04-06T11:41:04;14.00;17.70
41220;DHT22;26951;47.338;9.196;2023-04-06T11:43:48;14.00;15.80
41220;DHT22;26951;47.338;9.196;2023-04-06T11:46:33;14.00;14.50
41220;DHT22;26951;47.338;9.196;2023-04-06T11:49:17;13.90;15.70
41220;DHT22;26951;47.338;9.196;2023-04-06T11:52:02;13.80;15.90
41220;DHT22;26951;47.338;9.196;2023-04-06T11:54:51;13.70;13.90
41220;DHT22;26951;47.338;9.196;2023-04-06T11:57:35;13.70;13.40
41220;DHT22;26951;47.338;9.196;2023-04-06T12:00:20;13.60;12.90
41220;DHT22;26951;47.338;9.196;2023-04-06T12:03:05;13.60;13.60
41220;DHT22;26951;47.338;9.196;2023-04-06T12:05:49;13.70;18.20
41220;DHT22;26951;47.338;9.196;2023-04-06T12:08:34;13.70;17.80
41220;DHT22;26951;47.338;9.196;2023-04-06T12:11:18;13.60;12.60
41220;DHT22;26951;47.338;9.196;2023-04-06T12:14:04;13.40;12.30
41220;DHT22;26951;47.338;9.196;2023-04-06T12:16:49;13.40;13.60
41220;DHT22;26951;47.338;9.196;2023-04-06T12:19:33;13.50;15.30
41220;DHT22;26951;47.338;9.196;2023-04-06T12:22:18;13.50;15.40
41220;DHT22;26951;47.338;9.196;2023-04-06T12:25:02;13.60;15.50
41220;DHT22;26951;47.338;9.196;2023-04-06T12:27:47;13.70;16.20
41220;DHT22;26951;47.338;9.196;2023-04-06T12:30:31;13.60;12.60
41220;DHT22;26951;47.338;9.196;2023-04-06T12:33:16;13.50;15.10
41220;DHT22;26951;47.338;9.196;2023-04-06T12:36:00;13.40;12.20
41220;DHT22;26951;47.338;9.196;2023-04-06T12:38:48;13.50;14.70
41220;DHT22;26951;47.338;9.196;2023-04-06T12:41:32;13.60;15.70
41220;DHT22;26951;47.338;9.196;2023-04-06T12:44:17;13.60;16.00
41220;DHT22;26951;47.338;9.196;2023-04-06T12:47:01;13.70;15.80
41220;DHT22;26951;47.338;9.196;2023-04-06T12:49:46;13.60;15.00
41220;DHT22;26951;47.338;9.196;2023-04-06T12:52:30;13.60;14.70
41220;DHT22;26951;47.338;9.196;2023-04-06T12:55:15;13.60;13.10
41220;DHT22;26951;47.338;9.196;2023-04-06T12:57:59;13.60;15.70
41220;DHT22;26951;47.338;9.196;2023-04-06T13:00:44;13.70;17.80
41220;DHT22;26951;47.338;9.196;2023-04-06T13:03:29;13.80;15.60
41220;DHT22;26951;47.338;9.196;2023-04-06T13:06:14;13.90;16.80
41220;DHT22;26951;47.338;9.196;2023-04-06T13:08:59;13.80;13.10
41220;DHT22;26951;47.338;9.196;2023-04-06T13:11:44;13.90;15.30
41220;DHT22;26951;47.338;9.196;2023-04-06T13:14:28;13.90;15.20
41220;DHT22;26951;47.338;9.196;2023-04-06T13:17:13;13.80;16.60
41220;DHT22;26951;47.338;9.196;2023-04-06T13:19:57;13.80;13.70
41220;DHT22;26951;47.338;9.196;2023-04-06T13:22:41;13.70;13.30
41220;DHT22;26951;47.338;9.196;2023-04-06T13:25:26;13.60;16.20
41220;DHT22;26951;47.338;9.196;2023-04-06T13:28:10;13.50;13.70
41220;DHT22;26951;47.338;9.196;2023-04-06T13:30:55;13.40;14.70
41220;DHT22;26951;47.338;9.196;2023-04-06T13:33:39;13.40;13.80
41220;DHT22;26951;47.338;9.196;2023-04-06T13:36:25;13.30;13.60
41220;DHT22;26951;47.338;9.196;2023-04-06T13:39:10;13.20;14.80
41220;DHT22;26951;47.338;9.196;2023-04-06T13:41:54;13.10;13.60
41220;DHT22;26951;47.338;9.196;2023-04-06T13:44:42;13.00;15.90
41220;DHT22;26951;47.338;9.196;2023-04-06T13:47:26;13.00;14.10
41220;DHT22;26951;47.338;9.196;2023-04-06T13:50:11;12.90;15.30
41220;DHT22;26951;47.338;9.196;2023-04-06T13:52:55;12.90;13.80
41220;DHT22;26951;47.338;9.196;2023-04-06T13:55:40;12.80;12.40
41220;DHT22;26951;47.338;9.196;2023-04-06T13:58:25;12.80;13.10
41220;DHT22;26951;47.338;9.196;2023-04-06T14:01:09;12.90;15.90
41220;DHT22;26951;47.338;9.196;2023-04-06T14:03:53;12.90;13.50
41220;DHT22;26951;47.338;9.196;2023-04-06T14:06:37;12.90;13.40
41220;DHT22;26951;47.338;9.196;2023-04-06T14:09:22;12.70;12.30
41220;DHT22;26951;47.338;9.196;2023-04-06T14:12:06;12.60;13.10
41220;DHT22;26951;47.338;9.196;2023-04-06T14:14:50;12.60;16.00
41220;DHT22;26951;47.338;9.196;2023-04-06T14:17:35;12.60;14.40
41220;DHT22;26951;47.338;9.196;2023-04-06T14:20:19;12.60;14.20
41220;DHT22;26951;47.338;9.196;2023-04-06T14:23:03;12.70;13.40
41220;DHT22;26951;47.338;9.196;2023-04-06T14:25:48;12.60;13.40
41220;DHT22;26951;47.338;9.196;2023-04-06T14:28:33;12.60;15.10
41220;DHT22;26951;47.338;9.196;2023-04-06T14:31:17;12.50;13.20
41220;DHT22;26951;47.338;9.196;2023-04-06T14:34:01;12.50;14.40
41220;DHT22;26951;47.338;9.196;2023-04-06T14:36:46;12.60;15.10
41220;DHT22;26951;47.338;9.196;2023-04-06T14:39:31;12.60;14.70
41220;DHT22;26951;47.338;9.196;2023-04-06T14:42:15;12.60;16.30
41220;DHT22;26951;47.338;9.196;2023-04-06T14:44:59;12.60;14.40
41220;DHT22;26951;47.338;9.196;2023-04-06T14:47:43;12.60;14.80
41220;DHT22;26951;47.338;9.196;2023-04-06T14:50:27;12.70;16.90
41220;DHT22;26951;47.338;9.196;2023-04-06T14:53:11;12.80;16.00
41220;DHT22;26951;47.338;9.196;2023-04-06T14:55:57;12.80;17.10
41220;DHT22;26951;47.338;9.196;2023-04-06T14:58:42;12.80;18.90
41220;DHT22;26951;47.338;9.196;2023-04-06T15:01:26;12.80;17.90
41220;DHT22;26951;47.338;9.196;2023-04-06T15:04:11;12.90;17.50
41220;DHT22;26951;47.338;9.196;2023-04-06T15:06:55;12.90;16.80
41220;DHT22;26951;47.338;9.196;2023-04-06T15:09:39;12.80;17.10
41220;DHT22;26951;47.338;9.196;2023-04-06T15:12:23;12.90;18.90
41220;DHT22;26951;47.338;9.196;2023-04-06T15:15:08;13.00;15.60
41220;DHT22;26951;47.338;9.196;2023-04-06T15:17:52;13.10;16.90
41220;DHT22;26951;47.338;9.196;2023-04-06T15:20:36;13.00;16.80
41220;DHT22;26951;47.338;9.196;2023-04-06T15:23:20;13.00;14.80
41220;DHT22;26951;47.338;9.196;2023-04-06T15:26:04;13.00;14.80
41220;DHT22;26951;47.338;9.196;2023-04-06T15:28:48;12.90;13.10
41220;DHT22;26951;47.338;9.196;2023-04-06T15:31:34;12.90;13.70
41220;DHT22;26951;47.338;9.196;2023-04-06T15:34:19;12.70;14.90
41220;DHT22;26951;47.338;9.196;2023-04-06T15:37:03;12.60;13.10
41220;DHT22;26951;47.338;9.196;2023-04-06T15:39:48;12.40;13.60
41220;DHT22;26951;47.338;9.196;2023-04-06T15:42:32;12.40;14.40
41220;DHT22;26951;47.338;9.196;2023-04-06T15:45:17;12.40;14.60
41220;DHT22;26951;47.338;9.196;2023-04-06T15:48:01;12.40;13.40
41220;DHT22;26951;47.338;9.196;2023-04-06T15:50:45;12.30;15.40
41220;DHT22;26951;47.338;9.196;2023-04-06T15:53:29;12.40;14.30
41220;DHT22;26951;47.338;9.196;2023-04-06T15:56:14;12.30;13.50
41220;DHT22;26951;47.338;9.196;2023-04-06T15:58:58;12.30;13.20
41220;DHT22;26951;47.338;9.196;2023-04-06T16:01:45;12.20;14.00
41220;DHT22;26951;47.338;9.196;2023-04-06T16:04:29;12.10;14.50
41220;DHT22;26951;47.338;9.196;2023-04-06T16:07:14;12.10;13.30
41220;DHT22;26951;47.338;9.196;2023-04-06T16:09:58;12.00;13.80
41220;DHT22;26951;47.338;9.196;2023-04-06T16:12:42;11.90;14.40
41220;DHT22;26951;47.338;9.196;2023-04-06T16:15:26;11.90;12.60
41220;DHT22;26951;47.338;9.196;2023-04-06T16:18:11;11.80;12.20
41220;DHT22;26951;47.338;9.196;2023-04-06T16:20:55;11.70;13.60
41220;DHT22;26951;47.338;9.196;2023-04-06T16:23:39;11.60;14.30
41220;DHT22;26951;47.338;9.196;2023-04-06T16:26:25;11.50;15.30
41220;DHT22;26951;47.338;9.196;2023-04-06T16:29:10;11.40;13.00
41220;DHT22;26951;47.338;9.196;2023-04-06T16:31:54;11.20;13.50
41220;DHT22;26951;47.338;9.196;2023-04-06T16:34:39;11.10;13.80
41220;DHT22;26951;47.338;9.196;2023-04-06T16:37:24;10.90;13.40
41220;DHT22;26951;47.338;9.196;2023-04-06T16:40:09;10.90;13.80
41220;DHT22;26951;47.338;9.196;2023-04-06T16:42:54;10.80;13.60
41220;DHT22;26951;47.338;9.196;2023-04-06T16:45:38;10.70;13.20
41220;DHT22;26951;47.338;9.196;2023-04-06T16:48:22;10.60;13.60
41220;DHT22;26951;47.338;9.196;2023-04-06T16:51:07;10.50;14.00
41220;DHT22;26951;47.338;9.196;2023-04-06T16:53:52;10.50;14.30
41220;DHT22;26951;47.338;9.196;2023-04-06T16:56:36;10.40;15.90
41220;DHT22;26951;47.338;9.196;2023-04-06T16:59:20;10.30;13.90
41220;DHT22;26951;47.338;9.196;2023-04-06T17:02:05;10.30;15.60
41220;DHT22;26951;47.338;9.196;2023-04-06T17:04:49;10.20;16.00
41220;DHT22;26951;47.338;9.196;2023-04-06T17:07:33;10.20;15.90
41220;DHT22;26951;47.338;9.196;2023-04-06T17:10:19;10.20;15.50
41220;DHT22;26951;47.338;9.196;2023-04-06T17:13:04;10.20;16.90
41220;DHT22;26951;47.338;9.196;2023-04-06T17:15:49;10.20;17.20
41220;DHT22;26951;47.338;9.196;2023-04-06T17:18:33;10.10;16.70
41220;DHT22;26951;47.338;9.196;2023-04-06T17:21:18;10.10;16.50
41220;DHT22;26951;47.338;9.196;2023-04-06T17:24:03;10.00;17.10
41220;DHT22;26951;47.338;9.196;2023-04-06T17:26:48;10.00;17.80